createdAt,value
2019-05-19T00:01:17.306Z,31.48
2019-05-19T00:03:45.891Z,33.90
2019-05-19T00:06:14.592Z,33.10
2019-05-19T00:08:43.178Z,29.63
2019-05-19T00:11:11.780Z,32.73
2019-05-19T00:13:40.433Z,29.70
2019-05-19T00:16:08.958Z,33.57
2019-05-19T00:18:37.574Z,33.30
2019-05-19T00:21:06.193Z,24.80
2019-05-19T00:23:35.692Z,31.67
2019-05-19T00:26:04.382Z,32.17
2019-05-19T00:28:33.873Z,28.98
2019-05-19T00:31:02.406Z,26.27
2019-05-19T00:33:31.031Z,32.07
2019-05-19T00:35:59.697Z,33.00
2019-05-19T00:38:28.294Z,33.27
2019-05-19T00:40:56.978Z,31.30
2019-05-19T00:43:25.666Z,30.10
2019-05-19T00:45:54.626Z,32.00
2019-05-19T00:48:23.480Z,30.60
2019-05-19T00:50:52.095Z,32.40
2019-05-19T00:53:21.278Z,28.75
2019-05-19T00:55:50.285Z,33.80
2019-05-19T00:58:19.430Z,34.67
2019-05-19T01:00:48.938Z,32.73
2019-05-19T01:03:17.613Z,30.50
2019-05-19T01:05:46.153Z,31.03
2019-05-19T01:08:14.798Z,28.20
2019-05-19T01:10:43.458Z,32.03
2019-05-19T01:13:12.042Z,32.83
2019-05-19T01:15:41.648Z,29.50
2019-05-19T01:18:10.339Z,32.00
2019-05-19T01:20:38.922Z,29.13
2019-05-19T01:23:08.477Z,27.35
2019-05-19T01:25:37.102Z,30.63
2019-05-19T01:28:05.703Z,31.83
2019-05-19T01:30:34.300Z,30.93
2019-05-19T01:33:02.919Z,30.57
2019-05-19T01:35:31.468Z,32.00
2019-05-19T01:38:00.135Z,29.18
2019-05-19T01:40:28.728Z,33.70
2019-05-19T01:42:57.330Z,29.60
2019-05-19T01:45:25.917Z,32.60
2019-05-19T01:47:54.455Z,26.90
2019-05-19T01:50:23.050Z,29.23
2019-05-19T01:52:51.657Z,30.23
2019-05-19T01:55:20.291Z,30.50
2019-05-19T01:57:48.890Z,30.87
2019-05-19T02:00:17.430Z,31.13
2019-05-19T02:02:46.057Z,31.30
2019-05-19T02:05:14.882Z,31.47
2019-05-19T02:07:44.396Z,30.62
2019-05-19T02:10:14.628Z,30.67
2019-05-19T02:12:43.268Z,31.50
2019-05-19T02:15:11.894Z,30.77
2019-05-19T02:17:40.505Z,28.10
2019-05-19T02:20:09.647Z,28.57
2019-05-19T02:22:38.391Z,27.70
2019-05-19T02:25:07.439Z,28.38
2019-05-19T02:27:36.105Z,28.90
2019-05-19T02:30:05.117Z,31.03
2019-05-19T02:32:33.714Z,29.10
2019-05-19T02:35:02.334Z,31.00
2019-05-19T02:37:30.929Z,32.07
2019-05-19T02:39:59.601Z,31.55
2019-05-19T02:42:29.250Z,34.13
2019-05-19T02:44:58.571Z,29.67
2019-05-19T02:47:27.890Z,32.60
2019-05-19T02:49:56.984Z,30.37
2019-05-19T02:52:27.222Z,32.78
2019-05-19T02:54:56.134Z,30.77
2019-05-19T02:57:24.739Z,30.77
2019-05-19T02:59:53.335Z,30.37
2019-05-19T03:02:21.929Z,31.67
2019-05-19T03:04:50.612Z,30.97
2019-05-19T03:07:19.229Z,29.80
2019-05-19T03:09:48.556Z,33.25
2019-05-19T03:12:18.122Z,31.37
2019-05-19T03:14:46.715Z,30.80
2019-05-19T03:17:15.320Z,31.63
2019-05-19T03:19:44.312Z,30.57
2019-05-19T03:22:12.958Z,31.53
2019-05-19T03:24:42.079Z,30.10
2019-05-19T03:27:10.678Z,30.73
2019-05-19T03:29:44.073Z,32.20
2019-05-19T03:32:27.685Z,33.87
2019-05-19T03:34:56.292Z,33.60
2019-05-19T03:37:24.886Z,30.30
2019-05-19T03:39:53.503Z,33.40
2019-05-19T03:42:22.114Z,34.38
2019-05-19T03:44:50.635Z,33.87
2019-05-19T03:47:19.323Z,32.40
2019-05-19T03:49:47.986Z,34.27
2019-05-19T03:52:16.585Z,34.50
2019-05-19T03:54:45.126Z,31.57
2019-05-19T03:57:13.724Z,33.90
2019-05-19T03:59:42.410Z,34.83
2019-05-19T04:02:11.017Z,31.00
2019-05-19T04:04:39.631Z,34.97
2019-05-19T04:07:08.322Z,26.60
2019-05-19T04:09:36.921Z,33.23
2019-05-19T04:12:05.477Z,30.15
2019-05-19T04:14:33.990Z,27.13
2019-05-19T04:17:02.531Z,36.13
2019-05-19T04:19:31.230Z,35.03
2019-05-19T04:21:59.843Z,32.53
2019-05-19T04:24:28.452Z,34.00
2019-05-19T04:26:57.085Z,29.92
2019-05-19T04:29:25.673Z,36.63
2019-05-19T04:31:54.263Z,35.63
2019-05-19T04:34:22.882Z,34.43
2019-05-19T04:36:51.587Z,32.17
2019-05-19T04:39:20.258Z,34.93
2019-05-19T04:41:48.861Z,37.77
2019-05-19T04:44:17.399Z,34.57
2019-05-19T04:46:46.013Z,36.30
2019-05-19T04:49:14.597Z,34.60
2019-05-19T04:51:43.214Z,34.20
2019-05-19T04:54:11.826Z,32.00
2019-05-19T04:56:40.438Z,36.37
2019-05-19T04:59:09.033Z,36.63
2019-05-19T05:01:37.649Z,35.60
2019-05-19T05:04:06.186Z,32.77
2019-05-19T05:06:34.794Z,35.17
2019-05-19T05:09:05.466Z,37.05
2019-05-19T05:11:34.138Z,33.45
2019-05-19T05:14:02.741Z,34.20
2019-05-19T05:16:31.302Z,37.08
2019-05-19T05:18:59.839Z,23.97
2019-05-19T05:21:28.523Z,34.18
2019-05-19T05:23:57.141Z,34.33
2019-05-19T05:26:25.658Z,32.53
2019-05-19T05:28:54.278Z,36.47
2019-05-19T05:31:22.954Z,34.40
2019-05-19T05:33:51.470Z,30.03
2019-05-19T05:36:20.078Z,24.27
2019-05-19T05:38:48.707Z,36.17
2019-05-19T05:41:17.283Z,29.65
2019-05-19T05:43:45.901Z,36.93
2019-05-19T05:46:14.513Z,37.48
2019-05-19T05:48:43.061Z,32.60
2019-05-19T05:51:11.605Z,35.23
2019-05-19T05:53:40.217Z,32.88
2019-05-19T05:56:09.257Z,33.63
2019-05-19T05:58:37.876Z,32.73
2019-05-19T06:01:07.060Z,33.85
2019-05-19T06:03:35.650Z,33.57
2019-05-19T06:06:04.933Z,24.32
2019-05-19T06:08:33.529Z,36.47
2019-05-19T06:11:02.817Z,31.12
2019-05-19T06:13:31.401Z,30.97
2019-05-19T06:16:00.605Z,34.88
2019-05-19T06:18:29.210Z,33.00
2019-05-19T06:20:57.815Z,34.63
2019-05-19T06:23:26.422Z,33.60
2019-05-19T06:25:55.018Z,33.73
2019-05-19T06:28:23.688Z,34.70
2019-05-19T06:30:52.310Z,33.07
2019-05-19T06:33:20.917Z,33.77
2019-05-19T06:35:50.258Z,35.95
2019-05-19T06:38:18.878Z,33.60
2019-05-19T06:40:48.076Z,29.52
2019-05-19T06:43:16.707Z,32.47
2019-05-19T06:45:45.992Z,37.70
2019-05-19T06:48:14.634Z,36.20
2019-05-19T06:50:43.214Z,35.70
2019-05-19T06:53:14.449Z,35.43
2019-05-19T06:55:42.057Z,31.53
2019-05-19T06:58:10.650Z,31.73
2019-05-19T07:00:39.673Z,29.18
2019-05-19T07:03:08.394Z,34.63
2019-05-19T07:05:37.365Z,36.68
2019-05-19T07:08:06.009Z,33.27
2019-05-19T07:10:34.668Z,33.40
2019-05-19T07:13:03.401Z,34.60
2019-05-19T07:15:32.632Z,34.08
2019-05-19T07:18:01.242Z,33.90
2019-05-19T07:20:29.842Z,31.00
2019-05-19T07:22:58.499Z,30.00
2019-05-19T07:25:27.071Z,34.17
2019-05-19T07:27:55.564Z,31.20
2019-05-19T07:30:24.130Z,32.47
2019-05-19T07:32:52.738Z,33.50
2019-05-19T07:35:21.349Z,32.40
2019-05-19T07:37:50.414Z,36.10
2019-05-19T07:40:18.946Z,31.90
2019-05-19T07:42:48.102Z,15.98
2019-05-19T07:45:16.779Z,18.90
2019-05-19T07:47:45.906Z,17.50
2019-05-19T07:50:14.450Z,28.05
2019-05-19T07:52:43.048Z,32.97
2019-05-19T07:55:11.652Z,31.00
2019-05-19T07:57:40.267Z,32.47
2019-05-19T08:00:09.379Z,29.92
2019-05-19T08:02:38.206Z,27.30
2019-05-19T08:05:07.015Z,27.20
2019-05-19T08:07:36.105Z,30.20
2019-05-19T08:10:04.726Z,30.17
2019-05-19T08:12:33.840Z,30.97
2019-05-19T08:15:02.555Z,25.30
2019-05-19T08:17:31.841Z,32.78
2019-05-19T08:20:00.457Z,27.57
2019-05-19T08:22:29.614Z,28.62
2019-05-19T08:24:58.149Z,30.00
2019-05-19T08:27:26.663Z,27.90
2019-05-19T08:29:55.337Z,28.53
2019-05-19T08:32:23.907Z,22.00
2019-05-19T08:34:52.557Z,23.20
2019-05-19T08:37:21.190Z,29.10
2019-05-19T08:39:49.785Z,28.23
2019-05-19T08:42:18.314Z,24.67
2019-05-19T08:44:46.936Z,28.25
2019-05-19T08:47:16.221Z,24.72
2019-05-19T08:49:44.846Z,25.67
2019-05-19T08:52:13.369Z,28.80
2019-05-19T08:54:41.984Z,26.50
2019-05-19T08:57:10.598Z,26.90
2019-05-19T08:59:39.193Z,24.17
2019-05-19T09:02:07.801Z,24.57
2019-05-19T09:04:36.343Z,18.60
2019-05-19T09:07:04.935Z,26.50
2019-05-19T09:09:33.546Z,27.20
2019-05-19T09:12:02.142Z,29.42
2019-05-19T09:14:30.746Z,24.70
2019-05-19T09:16:59.985Z,24.72
2019-05-19T09:19:28.561Z,22.60
2019-05-19T09:21:57.725Z,25.85
2019-05-19T09:24:30.383Z,19.90
2019-05-19T09:26:56.660Z,26.52
2019-05-19T09:29:25.226Z,16.43
2019-05-19T09:31:53.804Z,19.10
2019-05-19T09:34:22.357Z,22.27
2019-05-19T09:36:51.445Z,23.20
2019-05-19T09:39:20.034Z,24.83
2019-05-19T09:41:49.825Z,28.50
2019-05-19T09:44:18.347Z,25.37
2019-05-19T09:46:47.500Z,26.00
2019-05-19T09:49:35.166Z,28.40
2019-05-19T09:52:04.782Z,24.93
2019-05-19T09:54:44.911Z,20.37
2019-05-19T09:57:03.766Z,23.83
2019-05-19T09:59:32.381Z,24.13
2019-05-19T10:02:00.971Z,24.50
2019-05-19T10:04:30.572Z,25.47
2019-05-19T10:06:59.649Z,28.38
2019-05-19T10:09:41.888Z,21.40
2019-05-19T10:12:10.478Z,25.15
2019-05-19T10:14:39.090Z,21.37
2019-05-19T10:17:07.713Z,26.77
2019-05-19T10:19:36.654Z,20.45
2019-05-19T10:22:05.321Z,19.50
2019-05-19T10:24:34.625Z,23.87
2019-05-19T10:27:03.226Z,21.57
2019-05-19T10:29:33.318Z,14.13
2019-05-19T10:32:01.946Z,20.68
2019-05-19T10:34:30.488Z,19.43
2019-05-19T10:36:59.101Z,21.83
2019-05-19T10:39:28.819Z,24.30
2019-05-19T10:41:57.405Z,23.23
2019-05-19T10:44:26.622Z,19.55
2019-05-19T10:46:55.217Z,20.33
2019-05-19T10:49:23.822Z,21.17
2019-05-19T10:51:52.436Z,19.53
2019-05-19T10:54:21.765Z,19.52
2019-05-19T10:56:50.297Z,20.73
2019-05-19T10:59:19.885Z,22.27
2019-05-19T11:01:48.562Z,23.40
2019-05-19T11:04:17.713Z,26.20
2019-05-19T11:06:46.250Z,24.20
2019-05-19T11:09:15.272Z,20.70
2019-05-19T11:11:43.926Z,23.83
2019-05-19T11:14:13.109Z,25.35
2019-05-19T11:16:41.630Z,19.87
2019-05-19T11:19:10.231Z,24.50
2019-05-19T11:21:38.926Z,25.72
2019-05-19T11:24:07.481Z,24.87
2019-05-19T11:26:36.077Z,25.45
2019-05-19T11:29:04.758Z,22.10
2019-05-19T11:31:33.372Z,23.32
2019-05-19T11:34:02.903Z,19.80
2019-05-19T11:36:31.505Z,22.13
2019-05-19T11:39:00.109Z,26.47
2019-05-19T11:41:28.721Z,24.27
2019-05-19T11:43:57.509Z,25.93
2019-05-19T11:46:26.038Z,24.72
2019-05-19T11:48:54.585Z,25.43
2019-05-19T11:51:23.225Z,14.70
2019-05-19T11:53:51.748Z,22.75
2019-05-19T11:56:20.346Z,24.70
2019-05-19T11:58:49.583Z,24.12
2019-05-19T12:01:18.242Z,20.50
2019-05-19T12:03:47.261Z,23.30
2019-05-19T12:06:15.854Z,21.47
2019-05-19T12:08:45.027Z,19.73
2019-05-19T12:11:13.738Z,28.00
2019-05-19T12:13:42.413Z,28.23
2019-05-19T12:16:11.083Z,22.93
2019-05-19T12:18:39.698Z,25.68
2019-05-19T12:21:08.834Z,27.13
2019-05-19T12:23:37.422Z,23.77
2019-05-19T12:26:22.009Z,26.27
2019-05-19T12:28:36.743Z,28.90
2019-05-19T12:31:05.354Z,12.33
2019-05-19T12:33:33.973Z,26.23
2019-05-19T12:36:02.568Z,27.30
2019-05-19T12:38:31.213Z,27.30
2019-05-19T12:40:59.803Z,24.27
2019-05-19T12:43:28.397Z,15.80
2019-05-19T12:45:57.363Z,27.82
2019-05-19T12:48:25.962Z,27.90
2019-05-19T12:50:54.555Z,24.85
2019-05-19T12:53:23.213Z,15.03
2019-05-19T12:55:51.745Z,27.37
2019-05-19T12:58:20.313Z,29.70
2019-05-19T13:00:48.925Z,26.20
2019-05-19T13:03:19.062Z,22.53
2019-05-19T13:05:47.667Z,22.30
2019-05-19T13:08:16.306Z,26.10
2019-05-19T13:10:44.901Z,24.65
2019-05-19T13:13:13.494Z,20.43
2019-05-19T13:15:42.122Z,18.80
2019-05-19T13:18:10.802Z,24.63
2019-05-19T13:20:39.426Z,14.40
2019-05-19T13:23:08.428Z,19.27
2019-05-19T13:25:37.717Z,22.30
2019-05-19T13:28:06.249Z,26.20
2019-05-19T13:30:35.485Z,25.62
2019-05-19T13:33:04.062Z,27.53
2019-05-19T13:35:32.662Z,22.87
2019-05-19T13:38:01.253Z,25.97
2019-05-19T13:40:29.800Z,21.93
2019-05-19T13:42:58.413Z,25.33
2019-05-19T13:45:27.012Z,26.17
2019-05-19T13:47:55.706Z,23.35
2019-05-19T13:50:24.314Z,24.05
2019-05-19T13:52:53.262Z,26.55
2019-05-19T13:55:21.870Z,23.37
2019-05-19T13:57:51.078Z,28.25
2019-05-19T14:00:19.738Z,26.90
2019-05-19T14:02:48.853Z,26.15
2019-05-19T14:05:17.394Z,28.63
2019-05-19T14:07:46.660Z,27.02
2019-05-19T14:10:15.258Z,29.40
2019-05-19T14:12:44.376Z,30.77
2019-05-19T14:15:13.289Z,27.10
2019-05-19T14:17:41.947Z,27.98
2019-05-19T14:20:10.570Z,21.23
2019-05-19T14:22:39.253Z,30.83
2019-05-19T14:25:07.790Z,28.85
2019-05-19T14:27:36.401Z,29.93
2019-05-19T14:30:06.008Z,29.13
2019-05-19T14:32:34.614Z,18.23
2019-05-19T14:35:03.235Z,26.37
2019-05-19T14:37:31.906Z,22.50
2019-05-19T14:40:00.577Z,18.80
2019-05-19T14:42:45.758Z,23.97
2019-05-19T14:45:14.453Z,27.73
2019-05-19T14:47:43.120Z,23.53
2019-05-19T14:50:11.763Z,24.98
2019-05-19T14:52:40.373Z,23.93
2019-05-19T14:55:08.898Z,22.32
2019-05-19T14:57:44.776Z,26.17
2019-05-19T15:00:08.245Z,24.77
2019-05-19T15:02:36.804Z,24.30
2019-05-19T15:05:05.557Z,18.00
2019-05-19T15:07:34.050Z,26.67
2019-05-19T15:10:02.577Z,19.05
2019-05-19T15:12:31.217Z,24.77
2019-05-19T15:15:00.914Z,23.55
2019-05-19T15:17:29.433Z,31.87
2019-05-19T15:19:58.057Z,31.10
2019-05-19T15:22:26.581Z,25.77
2019-05-19T15:24:55.171Z,20.13
2019-05-19T15:27:23.849Z,21.50
2019-05-19T15:29:52.407Z,30.90
2019-05-19T15:32:21.000Z,29.10
2019-05-19T15:34:50.039Z,23.10
2019-05-19T15:37:18.673Z,31.57
2019-05-19T15:39:47.764Z,23.35
2019-05-19T15:42:16.364Z,34.67
2019-05-19T15:44:44.993Z,28.27
2019-05-19T15:47:13.592Z,19.50
2019-05-19T15:49:42.185Z,18.10
2019-05-19T15:52:10.851Z,28.70
2019-05-19T15:54:39.434Z,33.63
2019-05-19T15:57:08.084Z,33.07
2019-05-19T15:59:36.674Z,29.48
2019-05-19T16:02:05.224Z,20.43
2019-05-19T16:04:34.439Z,32.08
2019-05-19T16:07:03.015Z,28.43
2019-05-19T16:09:32.297Z,29.77
2019-05-19T16:12:00.894Z,31.33
2019-05-19T16:14:30.078Z,32.13
2019-05-19T16:16:58.608Z,25.80
2019-05-19T16:19:27.213Z,30.90
2019-05-19T16:21:55.769Z,22.67
2019-05-19T16:24:24.453Z,34.23
2019-05-19T16:26:53.225Z,33.20
2019-05-19T16:29:21.746Z,23.57
2019-05-19T16:31:50.347Z,37.73
2019-05-19T16:34:18.950Z,37.10
2019-05-19T16:36:47.633Z,35.53
2019-05-19T16:39:16.243Z,23.70
2019-05-19T16:41:44.941Z,37.20
2019-05-19T16:44:13.874Z,19.87
2019-05-19T16:46:42.501Z,30.13
2019-05-19T16:49:11.682Z,24.70
2019-05-19T16:51:40.459Z,22.27
2019-05-19T16:54:13.818Z,24.15
2019-05-19T16:56:42.489Z,21.33
2019-05-19T16:59:12.163Z,22.40
2019-05-19T17:01:40.839Z,25.47
2019-05-19T17:04:09.934Z,25.65
2019-05-19T17:06:38.605Z,26.93
2019-05-19T17:09:07.831Z,28.85
2019-05-19T17:11:37.214Z,28.15
2019-05-19T17:14:05.878Z,23.87
2019-05-19T17:16:34.474Z,28.50
2019-05-19T17:19:03.078Z,24.03
2019-05-19T17:21:31.718Z,28.60
2019-05-19T17:24:00.420Z,25.93
2019-05-19T17:26:29.017Z,25.20
2019-05-19T17:29:00.590Z,23.07
2019-05-19T17:31:28.466Z,23.32
2019-05-19T17:33:57.067Z,23.33
2019-05-19T17:36:27.473Z,25.53
2019-05-19T17:38:56.143Z,23.32
2019-05-19T17:41:24.745Z,23.97
2019-05-19T17:43:53.270Z,24.43
2019-05-19T17:46:21.882Z,22.57
2019-05-19T17:48:51.222Z,25.80
2019-05-19T17:51:19.834Z,22.47
2019-05-19T17:53:48.892Z,28.85
2019-05-19T17:56:17.673Z,25.67
2019-05-19T17:58:47.268Z,26.68
2019-05-19T18:01:15.866Z,26.77
2019-05-19T18:03:44.898Z,19.25
2019-05-19T18:06:13.493Z,24.30
2019-05-19T18:08:42.446Z,26.40
2019-05-19T18:11:11.130Z,18.43
2019-05-19T18:13:40.072Z,24.47
2019-05-19T18:16:08.677Z,23.17
2019-05-19T18:18:38.256Z,27.60
2019-05-19T18:21:06.878Z,28.57
2019-05-19T18:23:36.209Z,26.77
2019-05-19T18:26:07.173Z,29.80
2019-05-19T18:28:35.137Z,28.38
2019-05-19T18:31:03.753Z,29.87
2019-05-19T18:33:32.658Z,29.75
2019-05-19T18:36:01.210Z,28.60
2019-05-19T18:38:29.877Z,33.67
2019-05-19T18:40:58.577Z,34.10
2019-05-19T18:43:27.441Z,32.03
2019-05-19T18:45:56.067Z,34.73
2019-05-19T18:48:24.638Z,29.72
2019-05-19T18:50:53.179Z,29.23
2019-05-19T18:53:22.010Z,30.00
2019-05-19T18:55:50.598Z,24.27
2019-05-19T18:58:19.318Z,29.03
2019-05-19T19:00:48.014Z,28.03
2019-05-19T19:03:16.709Z,28.03
2019-05-19T19:05:45.301Z,25.77
2019-05-19T19:08:13.825Z,24.53
2019-05-19T19:10:42.465Z,23.80
2019-05-19T19:13:11.074Z,23.10
2019-05-19T19:15:39.762Z,23.83
2019-05-19T19:18:08.934Z,25.70
2019-05-19T19:20:37.608Z,23.67
2019-05-19T19:23:06.225Z,16.20
2019-05-19T19:25:34.837Z,24.05
2019-05-19T19:28:03.433Z,23.55
2019-05-19T19:30:31.981Z,18.17
2019-05-19T19:33:00.514Z,16.90
2019-05-19T19:35:38.211Z,21.87
2019-05-19T19:37:59.593Z,23.23
2019-05-19T19:40:28.917Z,18.12
2019-05-19T19:42:58.147Z,17.92
2019-05-19T19:45:26.773Z,21.33
2019-05-19T19:47:55.369Z,25.48
2019-05-19T19:50:23.977Z,24.67
2019-05-19T19:52:52.574Z,24.43
2019-05-19T19:55:21.209Z,12.73
2019-05-19T19:57:49.835Z,18.80
2019-05-19T20:00:36.472Z,21.25
2019-05-19T20:03:06.294Z,23.90
2019-05-19T20:05:35.182Z,24.30
2019-05-19T20:08:05.071Z,19.15
2019-05-19T20:10:33.665Z,19.90
2019-05-19T20:13:02.204Z,21.90
2019-05-19T20:15:30.813Z,20.97
2019-05-19T20:17:59.435Z,20.87
2019-05-19T20:20:28.077Z,19.07
2019-05-19T20:22:56.693Z,19.90
2019-05-19T20:25:25.317Z,18.75
2019-05-19T20:27:53.959Z,16.60
2019-05-19T20:30:35.036Z,17.87
2019-05-19T20:32:53.198Z,20.60
2019-05-19T20:35:21.805Z,19.80
2019-05-19T20:37:50.664Z,18.05
2019-05-19T20:40:19.263Z,18.57
2019-05-19T20:42:47.870Z,9.30
2019-05-19T20:45:16.862Z,18.50
2019-05-19T20:47:45.533Z,15.53
2019-05-19T20:50:14.248Z,17.55
2019-05-19T20:52:42.925Z,21.23
2019-05-19T20:55:11.470Z,20.27
2019-05-19T20:57:40.078Z,18.10
2019-05-19T21:00:09.814Z,17.50
2019-05-19T21:02:38.484Z,19.10
2019-05-19T21:05:07.084Z,18.20
2019-05-19T21:07:35.690Z,21.87
2019-05-19T21:10:04.583Z,22.98
2019-05-19T21:12:34.154Z,19.77
2019-05-19T21:15:02.685Z,13.97
2019-05-19T21:17:31.421Z,22.57
2019-05-19T21:20:00.386Z,16.27
2019-05-19T21:22:28.982Z,21.75
2019-05-19T21:24:57.629Z,20.73
2019-05-19T21:27:26.155Z,22.82
2019-05-19T21:29:55.328Z,21.97
2019-05-19T21:32:23.917Z,23.80
2019-05-19T21:34:52.534Z,22.17
2019-05-19T21:37:21.203Z,26.80
2019-05-19T21:39:49.834Z,29.87
2019-05-19T21:42:18.526Z,28.33
2019-05-19T21:44:47.101Z,20.62
2019-05-19T21:47:15.684Z,32.03
2019-05-19T21:49:44.214Z,29.18
2019-05-19T21:52:12.721Z,29.18
2019-05-19T21:54:41.305Z,30.65
2019-05-19T21:57:09.832Z,35.67
2019-05-19T21:59:38.430Z,35.03
2019-05-19T22:02:07.197Z,27.20
2019-05-19T22:04:35.804Z,29.70
2019-05-19T22:07:12.522Z,30.67
2019-05-19T22:09:41.137Z,28.80
2019-05-19T22:12:10.878Z,29.02
2019-05-19T22:14:39.427Z,32.80
2019-05-19T22:17:09.109Z,26.70
2019-05-19T22:19:37.646Z,33.02
2019-05-19T22:22:06.183Z,38.50
2019-05-19T22:24:34.776Z,35.87
2019-05-19T22:27:03.470Z,36.53
2019-05-19T22:29:32.106Z,32.85
2019-05-19T22:32:00.705Z,37.27
2019-05-19T22:34:29.306Z,37.48
2019-05-19T22:36:59.234Z,35.90
2019-05-19T22:39:27.845Z,35.07
2019-05-19T22:41:56.367Z,34.50
2019-05-19T22:44:26.126Z,33.73
2019-05-19T22:46:54.646Z,30.77
2019-05-19T22:49:23.770Z,32.98
2019-05-19T22:51:52.381Z,27.50
2019-05-19T22:54:20.982Z,8.70
2019-05-19T22:56:49.592Z,28.17
2019-05-19T22:59:20.122Z,27.60
2019-05-19T23:01:51.672Z,27.82
2019-05-19T23:04:18.656Z,25.95
2019-05-19T23:06:47.259Z,25.25
2019-05-19T23:09:15.886Z,25.75
2019-05-19T23:11:44.510Z,23.93
2019-05-19T23:14:13.182Z,21.93
2019-05-19T23:16:41.785Z,20.40
2019-05-19T23:19:10.395Z,19.77
2019-05-19T23:21:39.007Z,19.57
2019-05-19T23:24:07.530Z,18.50
2019-05-19T23:26:36.168Z,17.37
2019-05-19T23:29:06.464Z,19.92
2019-05-19T23:31:35.077Z,11.68
2019-05-19T23:34:03.702Z,19.52
2019-05-19T23:36:32.433Z,16.17
2019-05-19T23:39:01.018Z,19.20
2019-05-19T23:41:29.726Z,18.03
2019-05-19T23:43:58.341Z,14.80
2019-05-19T23:46:27.069Z,17.27
2019-05-19T23:48:55.918Z,17.43
2019-05-19T23:51:24.523Z,16.87
2019-05-19T23:53:53.131Z,15.27
2019-05-19T23:56:21.733Z,15.48
2019-05-19T23:58:50.273Z,15.50
